createdAt,value
2018-01-10T00:01:34.365Z,100714.85
2018-01-10T00:04:44.335Z,100733.01
2018-01-10T00:07:54.143Z,100729.25
2018-01-10T00:11:05.008Z,100727.20
2018-01-10T00:14:18.392Z,100743.27
2018-01-10T00:17:29.585Z,100721.78
2018-01-10T00:20:42.715Z,100713.38
2018-01-10T00:23:52.911Z,100719.28
2018-01-10T00:27:02.898Z,100731.56
2018-01-10T00:30:14.564Z,100726.92
2018-01-10T00:33:25.329Z,100726.52
2018-01-10T00:36:35.745Z,100719.39
2018-01-10T00:39:49.321Z,100728.30
2018-01-10T00:43:07.396Z,100731.27
2018-01-10T00:46:19.826Z,100724.94
2018-01-10T00:49:32.796Z,100721.20
2018-01-10T00:52:43.238Z,100719.95
2018-01-10T00:55:55.363Z,100725.48
2018-01-10T00:59:05.529Z,100718.86
2018-01-10T01:02:17.210Z,100703.70
2018-01-10T01:05:27.998Z,100687.36
2018-01-10T01:08:38.306Z,100676.89
2018-01-10T01:11:47.318Z,100676.47
2018-01-10T01:14:57.886Z,100683.63
2018-01-10T01:18:07.420Z,100671.84
2018-01-10T01:21:17.648Z,100686.98
2018-01-10T01:24:27.288Z,100693.33
2018-01-10T01:27:40.761Z,100700.55
2018-01-10T01:30:52.963Z,100713.22
2018-01-10T01:34:07.304Z,100726.73
2018-01-10T01:37:23.634Z,100733.92
2018-01-10T01:40:34.310Z,100739.44
2018-01-10T01:43:43.314Z,100729.30
2018-01-10T01:46:57.012Z,100745.31
2018-01-10T01:50:06.590Z,100737.30
2018-01-10T01:53:16.948Z,100721.64
2018-01-10T01:56:27.700Z,100717.88
2018-01-10T01:59:42.618Z,100719.53
2018-01-10T02:02:53.835Z,100717.84
2018-01-10T02:06:05.189Z,100728.87
2018-01-10T02:09:17.664Z,100725.45
2018-01-10T02:12:28.094Z,100717.05
2018-01-10T02:15:39.232Z,100715.33
2018-01-10T02:18:48.800Z,100699.73
2018-01-10T02:22:00.660Z,100696.40
2018-01-10T02:25:10.283Z,100693.08
2018-01-10T02:28:19.071Z,100679.98
2018-01-10T02:31:30.255Z,100687.58
2018-01-10T02:34:44.143Z,100675.39
2018-01-10T02:37:54.616Z,100666.12
2018-01-10T02:41:05.665Z,100656.44
2018-01-10T02:44:17.149Z,100663.97
2018-01-10T02:47:29.778Z,100660.23
2018-01-10T02:50:40.997Z,100662.41
2018-01-10T02:53:55.955Z,100672.09
2018-01-10T02:57:06.601Z,100680.56
2018-01-10T03:00:17.187Z,100685.16
2018-01-10T03:03:26.907Z,100682.28
2018-01-10T03:06:37.078Z,100696.20
2018-01-10T03:09:47.056Z,100699.94
2018-01-10T03:12:58.147Z,100689.44
2018-01-10T03:16:10.454Z,100684.81
2018-01-10T03:19:20.424Z,100677.69
2018-01-10T03:22:31.041Z,100667.09
2018-01-10T03:25:54.141Z,100660.82
2018-01-10T03:29:05.090Z,100643.52
2018-01-10T03:32:17.576Z,100650.72
2018-01-10T03:35:27.668Z,100643.92
2018-01-10T03:38:40.296Z,100635.95
2018-01-10T03:41:50.008Z,100633.41
2018-01-10T03:45:03.851Z,100636.30
2018-01-10T03:48:15.656Z,100639.77
2018-01-10T03:51:26.182Z,100659.09
2018-01-10T03:54:36.818Z,100659.12
2018-01-10T03:57:48.170Z,100652.73
2018-01-10T04:00:58.189Z,100658.71
2018-01-10T04:04:10.299Z,100657.88
2018-01-10T04:07:33.693Z,100653.98
2018-01-10T04:10:44.521Z,100658.52
2018-01-10T04:13:54.259Z,100649.33
2018-01-10T04:17:03.901Z,100640.05
2018-01-10T04:20:18.278Z,100637.95
2018-01-10T04:23:30.119Z,100642.56
2018-01-10T04:26:44.089Z,100644.99
2018-01-10T04:29:52.994Z,100642.77
2018-01-10T04:33:02.533Z,100630.07
2018-01-10T04:36:13.472Z,100623.23
2018-01-10T04:39:22.990Z,100624.47
2018-01-10T04:42:33.231Z,100641.69
2018-01-10T04:45:49.513Z,100653.50
2018-01-10T04:49:16.946Z,100661.08
2018-01-10T04:52:26.088Z,100656.43
2018-01-10T04:55:35.384Z,100655.59
2018-01-10T04:58:45.880Z,100647.56
2018-01-10T05:01:56.704Z,100642.88
2018-01-10T05:05:06.765Z,100636.95
2018-01-10T05:08:22.248Z,100633.11
2018-01-10T05:11:31.875Z,100632.68
2018-01-10T05:14:41.937Z,100632.67
2018-01-10T05:17:54.664Z,100635.20
2018-01-10T05:21:02.768Z,100644.84
2018-01-10T05:24:10.105Z,100646.08
2018-01-10T05:27:20.293Z,100646.92
2018-01-10T05:30:47.927Z,100638.44
2018-01-10T05:34:00.711Z,100631.70
2018-01-10T05:37:18.019Z,100633.34
2018-01-10T05:40:28.354Z,100620.66
2018-01-10T05:43:56.198Z,100618.52
2018-01-10T05:47:08.699Z,100611.34
2018-01-10T05:50:34.357Z,100604.15
2018-01-10T05:53:45.243Z,100606.64
2018-01-10T05:56:58.899Z,100607.06
2018-01-10T06:00:08.887Z,100613.41
2018-01-10T06:03:18.862Z,100615.48
2018-01-10T06:06:29.372Z,100616.31
2018-01-10T06:09:54.583Z,100619.66
2018-01-10T06:13:05.547Z,100639.06
2018-01-10T06:16:15.520Z,100647.91
2018-01-10T06:19:25.564Z,100648.30
2018-01-10T06:22:37.673Z,100655.05
2018-01-10T06:25:52.615Z,100662.20
2018-01-10T06:29:01.578Z,100652.09
2018-01-10T06:32:13.438Z,100659.23
2018-01-10T06:35:25.680Z,100670.61
2018-01-10T06:38:36.499Z,100681.55
2018-01-10T06:41:47.036Z,100670.59
2018-01-10T06:44:56.830Z,100669.71
2018-01-10T06:48:07.543Z,100669.69
2018-01-10T06:51:18.898Z,100668.84
2018-01-10T06:54:28.656Z,100663.34
2018-01-10T06:57:37.659Z,100659.09
2018-01-10T07:00:48.390Z,100656.53
2018-01-10T07:03:59.827Z,100660.75
2018-01-10T07:07:10.341Z,100642.12
2018-01-10T07:10:20.003Z,100644.66
2018-01-10T07:13:31.353Z,100637.45
2018-01-10T07:16:43.997Z,100637.01
2018-01-10T07:19:55.181Z,100631.50
2018-01-10T07:23:05.616Z,100631.07
2018-01-10T07:26:17.229Z,100636.09
2018-01-10T07:29:28.163Z,100645.38
2018-01-10T07:32:38.863Z,100644.12
2018-01-10T07:35:51.388Z,100648.73
2018-01-10T07:38:58.687Z,100658.84
2018-01-10T07:42:26.922Z,100662.64
2018-01-10T07:45:37.819Z,100664.30
2018-01-10T07:49:09.685Z,100652.05
2018-01-10T07:52:26.067Z,100667.23
2018-01-10T07:55:38.003Z,100659.62
2018-01-10T07:58:48.679Z,100671.84
2018-01-10T08:02:00.333Z,100673.95
2018-01-10T08:05:14.694Z,100676.88
2018-01-10T08:08:22.326Z,100681.09
2018-01-10T08:11:34.135Z,100673.05
2018-01-10T08:14:43.114Z,100681.47
2018-01-10T08:17:53.903Z,100675.13
2018-01-10T08:21:05.424Z,100681.02
2018-01-10T08:24:15.194Z,100677.61
2018-01-10T08:27:26.072Z,100670.00
2018-01-10T08:30:37.132Z,100668.30
2018-01-10T08:33:49.111Z,100674.18
2018-01-10T08:37:00.123Z,100677.54
2018-01-10T08:40:11.315Z,100677.09
2018-01-10T08:43:22.697Z,100680.45
2018-01-10T08:46:33.885Z,100669.89
2018-01-10T08:49:44.808Z,100670.30
2018-01-10T08:52:58.897Z,100677.02
2018-01-10T08:56:11.032Z,100678.70
2018-01-10T08:59:22.698Z,100682.48
2018-01-10T09:02:34.143Z,100673.58
2018-01-10T09:05:47.196Z,100676.94
2018-01-10T09:09:00.837Z,100690.02
2018-01-10T09:12:13.880Z,100692.09
2018-01-10T09:15:24.922Z,100689.55
2018-01-10T09:18:35.937Z,100685.72
2018-01-10T09:21:47.336Z,100683.61
2018-01-10T09:24:56.415Z,100679.34
2018-01-10T09:28:07.374Z,100676.77
2018-01-10T09:31:18.713Z,100674.19
2018-01-10T09:34:28.410Z,100674.15
2018-01-10T09:37:38.299Z,100681.74
2018-01-10T09:40:48.016Z,100690.16
2018-01-10T09:44:05.708Z,100687.13
2018-01-10T09:47:16.013Z,100688.75
2018-01-10T09:50:26.358Z,100698.48
2018-01-10T09:53:37.900Z,100693.38
2018-01-10T09:56:47.604Z,100694.59
2018-01-10T09:59:58.663Z,100694.52
2018-01-10T10:03:10.653Z,100688.13
2018-01-10T10:06:20.931Z,100688.95
2018-01-10T10:09:31.475Z,100685.08
2018-01-10T10:12:40.613Z,100694.30
2018-01-10T10:15:50.635Z,100691.72
2018-01-10T10:19:00.554Z,100697.55
2018-01-10T10:22:10.750Z,100692.41
2018-01-10T10:25:20.202Z,100686.86
2018-01-10T10:28:29.146Z,100685.92
2018-01-10T10:31:39.039Z,100690.93
2018-01-10T10:34:52.797Z,100686.23
2018-01-10T10:38:09.136Z,100691.20
2018-01-10T10:41:19.094Z,100700.89
2018-01-10T10:44:30.251Z,100692.79
2018-01-10T10:47:46.464Z,100690.15
2018-01-10T10:50:56.499Z,100690.50
2018-01-10T10:54:08.327Z,100680.34
2018-01-10T10:57:21.862Z,100674.36
2018-01-10T11:00:33.301Z,100663.72
2018-01-10T11:03:44.861Z,100664.89
2018-01-10T11:06:56.406Z,100661.50
2018-01-10T11:10:07.041Z,100666.89
2018-01-10T11:13:20.382Z,100666.38
2018-01-10T11:16:32.949Z,100662.12
2018-01-10T11:19:43.450Z,100654.42
2018-01-10T11:22:56.571Z,100649.29
2018-01-10T11:26:07.865Z,100641.16
2018-01-10T11:29:19.185Z,100636.05
2018-01-10T11:32:30.102Z,100632.60
2018-01-10T11:35:43.978Z,100624.47
2018-01-10T11:38:55.752Z,100625.23
2018-01-10T11:42:07.907Z,100625.19
2018-01-10T11:45:19.491Z,100633.63
2018-01-10T11:48:30.338Z,100630.61
2018-01-10T11:51:41.660Z,100628.01
2018-01-10T11:54:51.444Z,100628.39
2018-01-10T11:58:03.587Z,100633.90
2018-01-10T12:01:15.050Z,100636.80
2018-01-10T12:04:24.903Z,100627.39
2018-01-10T12:07:37.510Z,100621.91
2018-01-10T12:10:47.982Z,100629.47
2018-01-10T12:13:57.007Z,100628.16
2018-01-10T12:17:08.114Z,100632.38
2018-01-10T12:20:21.685Z,100634.48
2018-01-10T12:23:35.696Z,100634.05
2018-01-10T12:26:48.042Z,100634.84
2018-01-10T12:29:59.095Z,100629.33
2018-01-10T12:33:08.352Z,100620.39
2018-01-10T12:36:18.005Z,100619.48
2018-01-10T12:39:30.207Z,100624.95
2018-01-10T12:42:42.116Z,100620.28
2018-01-10T12:45:58.934Z,100628.29
2018-01-10T12:49:08.899Z,100620.68
2018-01-10T12:52:22.060Z,100615.16
2018-01-10T12:55:33.708Z,100620.59
2018-01-10T12:58:44.908Z,100618.84
2018-01-10T13:01:59.133Z,100624.28
2018-01-10T13:05:17.882Z,100628.91
2018-01-10T13:08:33.276Z,100620.83
2018-01-10T13:11:43.160Z,100632.28
2018-01-10T13:14:55.186Z,100622.05
2018-01-10T13:18:06.104Z,100630.91
2018-01-10T13:21:19.995Z,100624.97
2018-01-10T13:24:30.067Z,100630.05
2018-01-10T13:27:41.552Z,100640.20
2018-01-10T13:30:58.349Z,100647.79
2018-01-10T13:34:09.739Z,100649.89
2018-01-10T13:37:21.204Z,100641.39
2018-01-10T13:40:29.634Z,100648.58
2018-01-10T13:43:39.290Z,100651.96
2018-01-10T13:46:48.812Z,100649.83
2018-01-10T13:49:59.754Z,100647.27
2018-01-10T13:53:10.359Z,100653.61
2018-01-10T13:56:24.767Z,100644.72
2018-01-10T13:59:35.330Z,100642.59
2018-01-10T14:02:49.040Z,100645.57
2018-01-10T14:05:59.179Z,100652.34
2018-01-10T14:09:11.120Z,100647.27
2018-01-10T14:12:21.608Z,100651.50
2018-01-10T14:15:32.910Z,100656.14
2018-01-10T14:18:42.359Z,100664.19
2018-01-10T14:21:59.867Z,100656.56
2018-01-10T14:25:16.742Z,100657.85
2018-01-10T14:28:28.920Z,100665.48
2018-01-10T14:31:38.993Z,100666.33
2018-01-10T14:34:48.442Z,100666.74
2018-01-10T14:38:00.522Z,100661.66
2018-01-10T14:41:12.830Z,100658.27
2018-01-10T14:44:25.205Z,100657.02
2018-01-10T14:47:37.488Z,100657.86
2018-01-10T14:50:47.200Z,100651.94
2018-01-10T14:54:00.015Z,100651.09
2018-01-10T14:57:11.199Z,100656.59
2018-01-10T15:00:20.953Z,100651.96
2018-01-10T15:03:31.828Z,100657.05
2018-01-10T15:06:41.126Z,100656.61
2018-01-10T15:09:51.505Z,100660.02
2018-01-10T15:13:05.753Z,100657.09
2018-01-10T15:16:17.077Z,100655.00
2018-01-10T15:19:26.357Z,100662.22
2018-01-10T15:22:36.210Z,100664.80
2018-01-10T15:25:49.837Z,100661.00
2018-01-10T15:28:59.788Z,100662.30
2018-01-10T15:32:10.259Z,100664.06
2018-01-10T15:35:21.172Z,100673.37
2018-01-10T15:38:32.149Z,100670.86
2018-01-10T15:41:41.455Z,100677.68
2018-01-10T15:44:52.545Z,100691.68
2018-01-10T15:48:04.037Z,100693.05
2018-01-10T15:51:15.406Z,100699.03
2018-01-10T15:54:35.238Z,100700.30
2018-01-10T15:57:46.628Z,100704.19
2018-01-10T16:00:59.376Z,100710.16
2018-01-10T16:04:13.943Z,100704.25
2018-01-10T16:07:22.597Z,100709.81
2018-01-10T16:10:30.694Z,100702.64
2018-01-10T16:13:40.336Z,100710.72
2018-01-10T16:16:49.881Z,100706.52
2018-01-10T16:20:01.349Z,100710.36
2018-01-10T16:23:11.858Z,100710.41
2018-01-10T16:26:25.226Z,100704.48
2018-01-10T16:29:37.876Z,100711.73
2018-01-10T16:32:50.598Z,100700.31
2018-01-10T16:36:04.684Z,100707.50
2018-01-10T16:39:15.829Z,100695.28
2018-01-10T16:42:25.987Z,100706.30
2018-01-10T16:45:38.038Z,100703.33
2018-01-10T16:49:05.277Z,100708.41
2018-01-10T16:52:27.149Z,100710.97
2018-01-10T16:59:32.324Z,100724.12
2018-01-10T17:03:10.871Z,100725.82
2018-01-10T17:06:36.691Z,100722.86
2018-01-10T17:10:22.119Z,100731.36
2018-01-10T17:13:49.221Z,100730.10
2018-01-10T17:17:27.674Z,100731.80
2018-01-10T17:20:46.146Z,100728.00
2018-01-10T17:24:12.927Z,100732.66
2018-01-10T17:27:40.777Z,100733.09
2018-01-10T17:34:29.425Z,100742.45
2018-01-10T17:38:04.507Z,100739.92
2018-01-10T17:41:26.955Z,100736.56
2018-01-10T17:44:55.225Z,100735.73
2018-01-10T17:48:18.078Z,100733.23
2018-01-10T17:51:41.018Z,100728.98
2018-01-10T18:02:00.374Z,100744.66
2018-01-10T18:05:23.858Z,100753.55
2018-01-10T18:08:38.905Z,100745.95
2018-01-10T18:12:01.273Z,100738.75
2018-01-10T18:15:18.942Z,100745.53
2018-01-10T18:18:45.117Z,100740.89
2018-01-10T18:22:05.064Z,100741.30
2018-01-10T18:25:29.951Z,100743.84
2018-01-10T18:28:56.836Z,100748.49
2018-01-10T18:32:11.033Z,100749.34
2018-01-10T18:35:34.842Z,100755.70
2018-01-10T18:38:57.120Z,100746.42
2018-01-10T18:42:18.042Z,100752.32
2018-01-10T18:45:44.150Z,100753.19
2018-01-10T18:49:12.669Z,100753.61
2018-01-10T18:52:34.282Z,100750.66
2018-01-10T18:55:57.883Z,100752.81
2018-01-10T18:59:12.664Z,100751.94
2018-01-10T19:02:39.514Z,100750.27
2018-01-10T19:06:29.324Z,100750.70
2018-01-10T19:09:47.042Z,100757.05
2018-01-10T19:13:05.216Z,100754.95
2018-01-10T19:16:23.114Z,100758.34
2018-01-10T19:19:47.180Z,100760.88
2018-01-10T19:23:27.373Z,100763.04
2018-01-10T19:26:58.227Z,100760.48
2018-01-10T19:30:32.272Z,100764.30
2018-01-10T19:33:56.513Z,100761.34
2018-01-10T19:41:07.982Z,100763.89
2018-01-10T19:44:34.973Z,100764.31
2018-01-10T19:47:56.794Z,100764.33
2018-01-10T19:51:12.836Z,100766.84
2018-01-10T19:55:01.385Z,100767.28
2018-01-10T19:58:42.947Z,100767.69
2018-01-10T20:01:53.426Z,100771.93
2018-01-10T20:05:04.493Z,100770.68
2018-01-10T20:08:26.830Z,100777.47
2018-01-10T20:23:01.350Z,100775.38
2018-01-10T20:26:09.970Z,100778.75
2018-01-10T20:29:24.310Z,100777.47
2018-01-10T20:32:33.624Z,100782.55
2018-01-10T20:35:48.726Z,100785.52
2018-01-10T20:38:58.354Z,100788.08
2018-01-10T20:42:11.358Z,100786.37
2018-01-10T20:45:27.038Z,100789.33
2018-01-10T20:48:41.023Z,100791.47
2018-01-10T20:51:52.087Z,100787.27
2018-01-10T20:55:04.658Z,100788.11
2018-01-10T20:58:15.449Z,100785.61
2018-01-10T21:01:24.493Z,100791.10
2018-01-10T21:04:35.118Z,100797.47
2018-01-10T21:07:46.408Z,100804.66
2018-01-10T21:10:57.283Z,100798.34
2018-01-10T21:14:08.246Z,100800.84
2018-01-10T21:17:19.450Z,100802.56
2018-01-10T21:20:30.363Z,100807.23
2018-01-10T21:23:41.088Z,100806.84
2018-01-10T21:26:52.389Z,100808.11
2018-01-10T21:30:04.945Z,100814.90
2018-01-10T21:33:18.207Z,100821.70
2018-01-10T21:36:26.951Z,100833.56
2018-01-10T21:39:42.200Z,100841.17
2018-01-10T21:43:05.220Z,100842.84
2018-01-10T21:46:17.790Z,100840.77
2018-01-10T21:49:25.148Z,100845.00
2018-01-10T21:52:35.667Z,100843.74
2018-01-10T21:55:45.690Z,100836.55
2018-01-10T21:58:57.515Z,100840.78
2018-01-10T22:02:08.216Z,100848.39
2018-01-10T22:05:21.538Z,100855.19
2018-01-10T22:08:31.509Z,100848.85
2018-01-10T22:11:41.041Z,100863.66
2018-01-10T22:14:53.804Z,100868.31
2018-01-10T22:18:03.767Z,100862.42
2018-01-10T22:21:14.063Z,100866.23
2018-01-10T22:24:24.062Z,100867.08
2018-01-10T22:27:34.334Z,100865.00
2018-01-10T22:30:43.483Z,100870.08
2018-01-10T22:33:53.589Z,100870.47
2018-01-10T22:37:02.654Z,100873.46
2018-01-10T22:40:13.184Z,100869.68
2018-01-10T22:43:24.430Z,100871.00
2018-01-10T22:46:32.753Z,100860.84
2018-01-10T22:49:46.709Z,100866.32
2018-01-10T22:52:57.441Z,100868.88
2018-01-10T22:56:09.351Z,100871.00
2018-01-10T22:59:18.838Z,100865.52
2018-01-10T23:02:29.238Z,100876.50
2018-01-10T23:05:40.844Z,100872.28
2018-01-10T23:08:52.526Z,100870.19
2018-01-10T23:12:03.549Z,100883.33
2018-01-10T23:15:16.414Z,100878.25
2018-01-10T23:18:29.435Z,100880.86
2018-01-10T23:21:39.457Z,100883.78
2018-01-10T23:24:49.280Z,100884.25
2018-01-10T23:28:00.116Z,100878.73
2018-01-10T23:31:10.140Z,100877.89
2018-01-10T23:34:19.853Z,100873.69
2018-01-10T23:37:30.405Z,100880.44
2018-01-10T23:40:41.353Z,100879.59
2018-01-10T23:43:55.020Z,100883.85
2018-01-10T23:47:04.812Z,100889.80
2018-01-10T23:50:16.068Z,100902.08
2018-01-10T23:53:29.279Z,100906.31
2018-01-10T23:56:46.132Z,100908.84
2018-01-10T23:59:57.035Z,100907.16
